Time;durP1;ratioP1;P1;durP2;ratioP2;P2;SDS_P1;SDS_P2;PMS_P1;PMS_P2;Temp;Humidity;BMP_temperature;BMP_pressure;BME280_temperature;BME280_humidity;BME280_pressure;Samples;Min_cycle;Max_cycle;Signal;HPM_P1;HPM_P2
2022/12/30 00:01:40;;;;;;;1.50;1.40;;;;;;;8.12;58.29;95918.75;4953017;29;20443;-63
2022/12/30 00:04:07;;;;;;;1.20;1.10;;;;;;;8.19;58.16;95916.91;4953221;29;20459;-63
2022/12/30 00:06:34;;;;;;;1.90;1.63;;;;;;;8.18;58.23;95917.91;4953428;29;20448;-63
2022/12/30 00:09:01;;;;;;;1.87;1.77;;;;;;;8.25;58.04;95923.88;4953180;29;20450;-63
2022/12/30 00:11:30;;;;;;;1.27;1.20;;;;;;;8.37;57.27;95916.97;4953232;29;20454;-64
2022/12/30 00:34:01;;;;;;;2.95;1.77;;;;;;;8.20;58.30;95931.53;4941388;29;20443;-65
2022/12/30 00:36:29;;;;;;;3.10;1.67;;;;;;;8.15;58.23;95934.00;4952924;29;20234;-63
2022/12/30 00:38:56;;;;;;;2.67;2.47;;;;;;;8.23;58.24;95933.72;4952778;29;20730;-63
2022/12/30 00:44:08;;;;;;;3.63;2.60;;;;;;;8.15;58.03;95934.81;4952650;29;20451;-63
2022/12/30 00:46:39;;;;;;;14.67;2.67;;;;;;;8.31;57.66;95936.09;4952333;29;20547;-63
2022/12/30 00:57:22;;;;;;;2.63;1.30;;;;;;;7.99;58.46;95934.56;4952419;29;20943;-64
2022/12/30 00:59:49;;;;;;;2.97;2.73;;;;;;;7.98;58.35;95938.16;4951863;29;20447;-64
2022/12/30 01:02:17;;;;;;;3.27;3.10;;;;;;;7.92;58.75;95933.78;4952113;29;20452;-65
2022/12/30 01:04:44;;;;;;;1.00;1.00;;;;;;;7.96;59.12;95929.75;4952006;29;20432;-63
2022/12/30 01:07:10;;;;;;;5.10;2.67;;;;;;;8.02;58.77;95928.91;4951886;29;20455;-63
2022/12/30 01:09:37;;;;;;;5.87;2.83;;;;;;;8.06;58.64;95940.53;4951774;29;20440;-62
2022/12/30 01:12:08;;;;;;;2.07;1.97;;;;;;;8.00;58.59;95946.59;4953273;29;20498;-65
2022/12/30 01:14:47;;;;;;;1.90;1.80;;;;;;;8.08;58.52;95939.28;4953755;29;20455;-63
2022/12/30 01:17:20;;;;;;;1.67;1.57;;;;;;;8.05;58.32;95933.69;4951974;29;20447;-64
2022/12/30 01:19:49;;;;;;;3.53;1.70;;;;;;;7.95;58.66;95931.59;4952448;29;20455;-67
2022/12/30 01:22:16;;;;;;;1.60;1.50;;;;;;;7.77;58.93;95933.31;4951693;29;20482;-64
2022/12/30 01:24:43;;;;;;;3.67;2.93;;;;;;;7.89;59.36;95934.22;4951797;29;20203;-64
2022/12/30 01:27:11;;;;;;;8.13;2.20;;;;;;;7.99;58.80;95934.56;4934401;29;20464;-62
2022/12/30 01:29:40;;;;;;;2.50;1.27;;;;;;;7.88;59.17;95941.25;4951761;29;20487;-64
2022/12/30 01:32:17;;;;;;;7.00;3.20;;;;;;;7.86;59.08;95925.03;4964404;28;20502;-65
2022/12/30 01:34:44;;;;;;;3.10;2.80;;;;;;;7.81;59.12;95926.69;4951557;29;20534;-64
2022/12/30 01:37:12;;;;;;;6.95;3.40;;;;;;;7.76;59.45;95918.66;4951370;29;20462;-62
2022/12/30 01:39:39;;;;;;;1.83;1.73;;;;;;;7.82;59.56;95923.03;4951303;29;20710;-64
2022/12/30 01:42:25;;;;;;;2.47;2.22;;;;;;;8.00;59.09;95917.88;4951399;28;20447;-61
2022/12/30 01:45:04;;;;;;;1.85;1.73;;;;;;;7.94;58.91;95913.50;4950888;29;20232;-62
2022/12/30 01:48:04;;;;;;;2.10;0.93;;;;;;;7.87;59.32;95910.16;4951337;29;20199;-64
2022/12/30 01:50:34;;;;;;;1.20;1.10;;;;;;;7.68;59.08;95918.94;4940390;29;20479;-64
2022/12/30 01:53:04;;;;;;;1.47;1.37;;;;;;;7.95;58.66;95917.72;4951163;29;20208;-63
2022/12/30 01:55:39;;;;;;;2.03;1.90;;;;;;;7.95;58.28;95912.50;4951496;29;20494;-64
2022/12/30 01:58:13;;;;;;;1.23;1.23;;;;;;;8.05;58.80;95921.44;4951167;29;20510;-65
2022/12/30 02:00:39;;;;;;;3.57;2.67;;;;;;;7.91;58.76;95916.53;4951078;29;20475;-63
2022/12/30 02:03:07;;;;;;;2.47;2.20;;;;;;;7.49;59.88;95912.06;4950880;29;20455;-65
2022/12/30 02:05:37;;;;;;;3.23;2.77;;;;;;;7.78;59.50;95912.25;4951338;29;20447;-64
2022/12/30 02:08:09;;;;;;;1.55;1.45;;;;;;;7.67;59.40;95904.28;4951352;29;20538;-66
2022/12/30 02:10:38;;;;;;;12.95;3.08;;;;;;;7.80;58.88;95910.22;4951051;29;20188;-63
2022/12/30 02:13:05;;;;;;;6.60;4.63;;;;;;;7.78;59.41;95901.81;4950939;29;20195;-64
2022/12/30 02:15:42;;;;;;;2.35;1.90;;;;;;;7.77;59.53;95909.84;4950823;29;20495;-65
2022/12/30 02:18:28;;;;;;;5.13;2.17;;;;;;;7.60;59.85;95908.75;4951079;29;20782;-64
2022/12/30 02:21:21;;;;;;;1.63;1.53;;;;;;;7.92;59.30;95899.88;4939097;29;20439;-64
2022/12/30 02:24:07;;;;;;;4.57;3.20;;;;;;;7.85;59.26;95905.16;4941833;29;20451;-64
2022/12/30 02:26:34;;;;;;;0.97;0.97;;;;;;;7.73;59.60;95911.28;4951199;29;20453;-64
2022/12/30 02:29:16;;;;;;;2.13;2.00;;;;;;;7.91;58.93;95912.13;4951067;29;20487;-64
2022/12/30 02:32:40;;;;;;;2.33;2.15;;;;;;;8.04;58.67;95904.19;4951304;29;20510;-63
2022/12/30 02:35:15;;;;;;;5.45;1.85;;;;;;;7.96;58.82;95908.88;4872317;29;20261;-64
2022/12/30 02:38:09;;;;;;;0.85;0.85;;;;;;;7.73;59.07;95912.09;4872733;29;20206;-64
2022/12/30 02:46:29;;;;;;;4.13;3.40;;;;;;;7.55;59.94;95900.78;4950996;29;20480;-64
2022/12/30 02:48:57;;;;;;;5.80;3.83;;;;;;;7.48;59.54;95900.81;4950752;29;20459;-65
2022/12/30 02:54:13;;;;;;;1.50;1.40;;;;;;;7.41;60.06;95894.06;4951489;28;20216;-63
2022/12/30 02:56:48;;;;;;;0.57;0.57;;;;;;;7.32;60.24;95892.72;4941821;29;20286;-63
2022/12/30 03:05:38;;;;;;;3.25;2.80;;;;;;;6.77;61.97;95896.84;4947237;29;20519;-64
2022/12/30 03:08:11;;;;;;;1.85;1.70;;;;;;;6.94;61.59;95903.97;4943058;29;20195;-63
2022/12/30 03:13:45;;;;;;;8.32;2.20;;;;;;;6.85;61.76;95900.00;4953995;29;20682;-64
2022/12/30 03:16:34;;;;;;;0.83;0.83;;;;;;;7.00;60.97;95894.50;4943192;29;20243;-63
2022/12/30 03:19:07;;;;;;;3.70;2.40;;;;;;;7.27;60.24;95908.19;4953319;29;20447;-62
2022/12/30 03:21:40;;;;;;;1.92;1.77;;;;;;;7.05;60.85;95890.28;4953832;29;20203;-63
2022/12/30 03:27:05;;;;;;;0.40;0.40;;;;;;;6.76;62.07;95890.81;4953710;29;20218;-63
2022/12/30 03:29:41;;;;;;;4.90;1.50;;;;;;;6.57;63.00;95902.09;4953797;29;20207;-63
2022/12/30 03:32:12;;;;;;;0.68;0.68;;;;;;;6.70;62.65;95902.06;4953600;29;20214;-62
2022/12/30 03:34:40;;;;;;;8.18;2.95;;;;;;;6.71;61.60;95908.88;4953439;29;20266;-64
2022/12/30 03:37:28;;;;;;;0.93;0.85;;;;;;;6.79;61.49;95905.22;4953515;29;20687;-64
2022/12/30 03:40:01;;;;;;;1.73;1.58;;;;;;;7.10;60.45;95918.28;4953459;29;20204;-64
2022/12/30 03:42:29;;;;;;;3.45;3.15;;;;;;;6.86;60.19;95906.78;4953867;29;20204;-62
2022/12/30 03:44:56;;;;;;;4.13;2.38;;;;;;;6.87;59.85;95908.41;4953477;29;20266;-63
2022/12/30 03:47:22;;;;;;;1.65;1.55;;;;;;;6.92;60.10;95916.38;4953619;29;20275;-62
2022/12/30 03:49:49;;;;;;;3.42;2.80;;;;;;;7.02;60.21;95914.16;4953121;29;20259;-63
2022/12/30 03:52:20;;;;;;;1.95;1.75;;;;;;;6.92;60.54;95932.03;4953517;29;20200;-64
2022/12/30 03:54:48;;;;;;;3.13;2.92;;;;;;;6.76;61.19;95924.69;4953428;29;20924;-63
2022/12/30 03:57:17;;;;;;;2.75;2.58;;;;;;;6.59;61.38;95933.13;4953230;29;20716;-63
2022/12/30 03:59:44;;;;;;;2.15;1.63;;;;;;;6.48;62.22;95931.19;4952808;29;20207;-64
2022/12/30 04:02:11;;;;;;;3.47;2.95;;;;;;;6.67;60.94;95931.13;4953394;29;20226;-63
2022/12/30 04:04:38;;;;;;;2.40;2.23;;;;;;;6.72;60.21;95931.31;4952982;29;20207;-64
2022/12/30 04:07:05;;;;;;;5.32;3.55;;;;;;;6.83;60.55;95932.47;4952456;29;20436;-64
2022/12/30 04:09:31;;;;;;;2.28;2.10;;;;;;;6.80;60.61;95945.91;4953250;29;20837;-63
2022/12/30 04:11:58;;;;;;;0.38;0.38;;;;;;;6.74;60.08;95939.72;4953043;29;20961;-64
2022/12/30 04:14:25;;;;;;;5.68;4.40;;;;;;;6.50;60.65;95948.19;4953132;29;20200;-63
2022/12/30 04:16:52;;;;;;;6.85;4.38;;;;;;;6.52;61.03;95946.19;4952685;29;20314;-64
2022/12/30 04:19:19;;;;;;;11.10;2.40;;;;;;;6.70;60.75;95948.94;4952583;29;20287;-64
2022/12/30 04:21:46;;;;;;;0.98;0.93;;;;;;;6.67;59.87;95944.16;4952293;29;20239;-64
2022/12/30 04:24:12;;;;;;;4.45;3.47;;;;;;;6.71;59.41;95950.56;4953167;29;20219;-63
2022/12/30 04:26:39;;;;;;;2.25;2.05;;;;;;;6.74;59.05;95946.72;4952666;29;20241;-64
2022/12/30 04:29:06;;;;;;;2.15;1.95;;;;;;;6.68;59.59;95945.72;4953073;29;20266;-64
2022/12/30 04:31:33;;;;;;;3.95;2.85;;;;;;;6.77;60.07;95954.13;4952580;29;20230;-64
2022/12/30 04:34:00;;;;;;;2.63;2.42;;;;;;;6.02;62.66;95949.47;4952562;29;20300;-64
2022/12/30 04:36:34;;;;;;;2.17;1.98;;;;;;;6.14;62.51;95950.47;4951960;29;20232;-63
2022/12/30 04:39:01;;;;;;;3.03;2.33;;;;;;;6.43;61.26;95952.63;4939643;29;20195;-62
2022/12/30 04:41:27;;;;;;;7.93;1.50;;;;;;;6.44;60.79;95956.03;4952211;29;20656;-64
2022/12/30 04:43:54;;;;;;;4.32;3.92;;;;;;;6.54;60.91;95949.38;4952348;29;20195;-64
2022/12/30 04:46:21;;;;;;;2.35;2.15;;;;;;;6.60;59.71;95952.97;4952153;28;20207;-64
2022/12/30 04:48:48;;;;;;;4.90;3.58;;;;;;;6.60;59.82;95953.78;4952677;28;20218;-62
2022/12/30 04:51:22;;;;;;;7.80;2.30;;;;;;;6.49;60.45;95957.03;4952025;29;20236;-63
2022/12/30 04:53:49;;;;;;;5.28;4.78;;;;;;;6.38;60.74;95962.84;4952302;29;20556;-63
2022/12/30 04:56:17;;;;;;;4.13;3.63;;;;;;;5.87;62.61;95967.91;4952452;29;20258;-63
2022/12/30 04:58:51;;;;;;;7.32;3.78;;;;;;;6.07;61.13;95963.50;4953835;29;20199;-63
2022/12/30 05:01:18;;;;;;;1.98;1.75;;;;;;;6.23;61.28;95970.06;4953588;29;20192;-63
2022/12/30 05:03:46;;;;;;;2.70;2.50;;;;;;;6.23;60.38;95974.47;4952221;29;20207;-65
2022/12/30 05:06:13;;;;;;;2.67;2.45;;;;;;;6.10;61.20;95975.28;4951907;29;20597;-64
2022/12/30 05:08:39;;;;;;;6.18;4.80;;;;;;;6.24;61.36;95976.88;4952007;29;20614;-64
2022/12/30 05:11:06;;;;;;;1.55;1.45;;;;;;;6.21;61.18;95969.47;4951394;29;20695;-64
2022/12/30 05:13:33;;;;;;;4.28;3.70;;;;;;;6.09;61.65;95976.28;4952008;29;20299;-64
2022/12/30 05:16:00;;;;;;;16.02;3.63;;;;;;;6.25;61.98;95980.28;4939137;29;20243;-64
2022/12/30 05:18:28;;;;;;;1.88;1.63;;;;;;;6.38;60.77;95981.06;4951153;28;20208;-65
2022/12/30 05:20:55;;;;;;;4.10;3.80;;;;;;;6.46;60.17;95980.84;4951761;29;20226;-64
2022/12/30 05:26:14;;;;;;;3.13;2.85;;;;;;;6.34;60.08;95977.25;4951706;29;20214;-63
2022/12/30 05:28:46;;;;;;;3.22;2.88;;;;;;;6.20;59.94;95983.50;4950825;29;20554;-63
2022/12/30 05:31:14;;;;;;;3.17;2.90;;;;;;;6.25;60.16;95990.69;4951618;29;20295;-63
2022/12/30 05:33:41;;;;;;;5.53;4.07;;;;;;;6.25;60.30;95990.69;4951411;29;20207;-64
2022/12/30 05:36:09;;;;;;;2.13;1.92;;;;;;;6.23;60.21;95990.09;4951750;29;20286;-64
2022/12/30 05:38:37;;;;;;;1.65;1.55;;;;;;;6.30;60.35;95994.28;4950795;29;20222;-65
2022/12/30 05:41:05;;;;;;;7.07;3.85;;;;;;;6.19;60.38;95987.09;4951699;29;20199;-63
2022/12/30 05:43:43;;;;;;;8.23;4.97;;;;;;;6.15;60.80;95989.28;4951588;29;20217;-65
2022/12/30 05:46:10;;;;;;;2.45;1.98;;;;;;;6.28;59.94;95993.69;4951304;29;20239;-63
2022/12/30 05:48:37;;;;;;;2.35;1.73;;;;;;;6.32;60.09;95992.28;4951615;29;20200;-66
2022/12/30 05:51:04;;;;;;;8.38;2.10;;;;;;;5.94;61.58;95991.31;4951469;29;20218;-64
2022/12/30 05:53:31;;;;;;;5.75;2.88;;;;;;;6.16;60.99;96000.50;4951186;29;20223;-64
2022/12/30 05:56:02;;;;;;;9.25;2.67;;;;;;;6.38;59.79;95996.69;4951003;29;20808;-63
2022/12/30 05:58:29;;;;;;;1.60;1.52;;;;;;;6.25;60.32;95999.31;4950921;29;20204;-63
2022/12/30 06:00:57;;;;;;;8.38;3.75;;;;;;;6.08;60.28;95992.91;4950913;29;20627;-65
2022/12/30 06:03:24;;;;;;;2.70;2.50;;;;;;;5.88;60.25;96005.09;4946634;29;20638;-63
2022/12/30 06:05:56;;;;;;;3.55;2.05;;;;;;;5.89;60.07;96001.50;4950226;29;20200;-63
2022/12/30 06:08:23;;;;;;;2.95;2.60;;;;;;;5.73;60.21;96007.06;4944565;29;20243;-63
2022/12/30 06:10:51;;;;;;;3.30;3.00;;;;;;;5.93;60.40;96005.31;4947639;29;20204;-63
2022/12/30 06:13:18;;;;;;;7.50;3.25;;;;;;;5.81;59.98;96009.47;4945065;29;20189;-64
2022/12/30 06:15:44;;;;;;;4.55;3.72;;;;;;;5.85;59.92;96006.31;4945447;29;20208;-63
2022/12/30 06:18:11;;;;;;;3.40;2.83;;;;;;;5.90;59.63;96003.09;4946761;29;20260;-63
2022/12/30 06:20:38;;;;;;;9.57;4.05;;;;;;;5.46;61.57;96015.78;4944730;29;20581;-64
2022/12/30 06:23:05;;;;;;;0.70;0.70;;;;;;;5.08;62.24;96012.88;4942987;29;20210;-63
2022/12/30 06:25:33;;;;;;;2.72;2.22;;;;;;;5.34;61.80;96017.38;4950490;29;20231;-62
2022/12/30 06:27:59;;;;;;;4.78;3.30;;;;;;;5.65;60.79;96015.84;4948411;28;20294;-63
2022/12/30 06:30:26;;;;;;;8.05;3.10;;;;;;;5.71;60.57;96009.06;4954357;29;20656;-63
2022/12/30 06:32:59;;;;;;;3.35;2.40;;;;;;;5.82;60.24;96021.47;4954198;29;20192;-63
2022/12/30 06:35:27;;;;;;;3.22;3.03;;;;;;;5.86;60.05;96027.91;4954453;29;20188;-64
2022/12/30 06:37:53;;;;;;;2.65;2.47;;;;;;;5.72;60.67;96026.25;4954618;29;20216;-64
2022/12/30 06:40:21;;;;;;;4.78;2.97;;;;;;;5.63;60.79;96027.44;4953783;29;20199;-64
2022/12/30 06:42:48;;;;;;;4.90;4.50;;;;;;;5.75;60.17;96031.06;4954641;29;20278;-63
2022/12/30 06:45:15;;;;;;;4.20;3.65;;;;;;;5.74;60.23;96029.47;4953849;29;20239;-64
2022/12/30 06:47:42;;;;;;;4.25;3.85;;;;;;;5.88;59.86;96031.91;4954436;29;20204;-63
2022/12/30 06:50:09;;;;;;;7.40;4.43;;;;;;;5.80;60.93;96039.09;4954153;29;20643;-62
2022/12/30 06:52:36;;;;;;;5.28;3.55;;;;;;;5.73;61.29;96033.06;4953796;29;20263;-63
2022/12/30 06:55:04;;;;;;;8.32;3.80;;;;;;;5.83;61.03;96036.91;4941076;29;20220;-63
2022/12/30 06:57:31;;;;;;;3.83;3.53;;;;;;;5.87;60.30;96039.91;4953719;29;20224;-63
2022/12/30 06:59:58;;;;;;;7.65;6.28;;;;;;;5.79;61.06;96038.28;4954077;29;20226;-63
2022/12/30 07:02:25;;;;;;;6.38;4.72;;;;;;;6.03;60.43;96034.34;4953870;29;20628;-63
2022/12/30 07:04:52;;;;;;;6.13;5.53;;;;;;;6.02;60.34;96048.34;4953493;29;20299;-64
2022/12/30 07:07:19;;;;;;;5.43;4.00;;;;;;;5.94;60.23;96048.53;4953661;29;20648;-64
2022/12/30 07:09:46;;;;;;;5.05;4.53;;;;;;;6.02;60.21;96048.34;4954103;29;20243;-63
2022/12/30 07:12:13;;;;;;;9.15;5.57;;;;;;;5.84;60.78;96046.31;4953731;29;20639;-63
2022/12/30 07:14:40;;;;;;;2.92;2.58;;;;;;;5.67;60.87;96039.06;4953997;29;20290;-63
2022/12/30 07:17:06;;;;;;;4.85;4.45;;;;;;;5.92;60.25;96045.31;4953366;29;20242;-62
2022/12/30 07:19:33;;;;;;;4.93;4.50;;;;;;;5.83;61.71;96046.50;4953577;29;20671;-63
2022/12/30 07:22:00;;;;;;;5.75;4.72;;;;;;;6.35;60.27;96054.34;4953351;29;20239;-63
2022/12/30 07:24:27;;;;;;;12.52;8.65;;;;;;;6.43;59.69;96056.75;4953352;29;20679;-62
2022/12/30 07:26:53;;;;;;;6.85;5.95;;;;;;;6.64;59.70;96047.94;4953522;29;20254;-62
2022/12/30 07:29:20;;;;;;;7.80;6.63;;;;;;;6.36;60.05;96040.34;4953329;29;20196;-62
2022/12/30 07:31:47;;;;;;;8.63;7.13;;;;;;;6.52;59.92;96049.53;4953272;29;20624;-63
2022/12/30 07:34:13;;;;;;;5.32;4.82;;;;;;;6.64;60.36;96053.91;4953536;28;20228;-63
2022/12/30 07:36:40;;;;;;;22.10;7.32;;;;;;;6.51;60.65;96055.75;4953329;29;20270;-65
2022/12/30 07:39:07;;;;;;;7.60;6.85;;;;;;;6.66;60.10;96051.91;4946262;29;20193;-64
2022/12/30 07:41:34;;;;;;;15.40;11.13;;;;;;;6.94;59.66;96049.06;4945681;28;20740;-65
2022/12/30 07:44:07;;;;;;;11.85;9.57;;;;;;;7.03;60.28;96051.25;4931174;29;20279;-63
2022/12/30 07:46:36;;;;;;;12.93;7.28;;;;;;;6.94;60.35;96055.09;4945803;29;20220;-63
2022/12/30 07:49:03;;;;;;;22.57;8.60;;;;;;;6.86;61.21;96047.47;4946416;29;20233;-65
2022/12/30 07:51:30;;;;;;;27.05;12.13;;;;;;;7.11;60.17;96064.06;4948283;29;20512;-63
2022/12/30 07:53:58;;;;;;;17.53;12.07;;;;;;;7.34;59.54;96062.75;4948117;29;20592;-61
2022/12/30 07:56:33;;;;;;;11.70;7.13;;;;;;;7.46;59.80;96059.31;4946013;29;20522;-62
2022/12/30 07:58:59;;;;;;;9.67;6.07;;;;;;;7.56;60.46;96053.63;4944570;29;20443;-62
2022/12/30 08:01:26;;;;;;;9.25;6.07;;;;;;;7.84;59.51;96051.50;4947350;29;20974;-63
2022/12/30 08:03:53;;;;;;;10.60;6.32;;;;;;;7.87;58.89;96048.44;4940398;29;20328;-63
2022/12/30 08:06:20;;;;;;;8.00;3.07;;;;;;;8.05;58.83;96054.56;4949237;29;20615;-62
2022/12/30 08:08:47;;;;;;;9.83;7.80;;;;;;;8.39;58.90;96045.53;4945821;29;20444;-63
2022/12/30 08:11:15;;;;;;;32.67;7.33;;;;;;;8.59;57.89;96051.38;4951956;29;20805;-62
2022/12/30 08:13:43;;;;;;;5.53;4.03;;;;;;;8.67;58.02;96048.47;4948852;29;20444;-62
2022/12/30 08:16:13;;;;;;;7.13;4.97;;;;;;;8.79;57.45;96038.91;4946073;29;20955;-62
2022/12/30 08:18:40;;;;;;;13.23;7.73;;;;;;;8.95;57.32;96040.97;4950503;29;20570;-63
2022/12/30 08:21:10;;;;;;;13.93;8.17;;;;;;;9.07;56.62;96039.22;4941649;29;20441;-63
2022/12/30 08:23:37;;;;;;;11.33;8.10;;;;;;;9.09;56.56;96031.97;4949404;29;20439;-63
2022/12/30 08:26:10;;;;;;;11.20;6.10;;;;;;;8.69;56.70;96048.25;4945572;29;20499;-62
2022/12/30 08:28:37;;;;;;;10.80;5.20;;;;;;;8.84;56.58;96054.75;4945526;29;21061;-62
2022/12/30 08:31:11;;;;;;;8.83;7.90;;;;;;;9.16;56.67;96042.31;4933722;29;20451;-63
2022/12/30 08:33:39;;;;;;;11.97;7.00;;;;;;;9.17;56.05;96039.53;4947709;29;20458;-66
2022/12/30 08:36:09;;;;;;;4.07;3.70;;;;;;;9.09;56.81;96047.66;4945594;29;20444;-64
2022/12/30 08:38:39;;;;;;;3.10;2.80;;;;;;;9.18;56.69;96048.16;4941205;29;20491;-65
2022/12/30 08:41:08;;;;;;;5.27;4.37;;;;;;;9.54;55.71;96047.31;4943195;29;20466;-64
2022/12/30 08:43:35;;;;;;;3.93;3.53;;;;;;;9.47;55.69;96047.41;4949074;29;20451;-64
2022/12/30 08:46:03;;;;;;;26.07;8.40;;;;;;;9.50;55.24;96044.34;4950855;29;20554;-64
2022/12/30 08:48:31;;;;;;;4.40;4.00;;;;;;;10.04;54.28;96044.22;4948707;29;20854;-63
2022/12/30 08:51:00;;;;;;;8.70;5.63;;;;;;;10.03;54.70;96044.44;4950512;29;21023;-62
2022/12/30 08:53:27;;;;;;;1.77;1.67;;;;;;;10.54;52.94;96042.06;4951672;29;20880;-64
2022/12/30 08:56:07;;;;;;;7.00;3.60;;;;;;;10.54;53.13;96036.81;4951985;29;21075;-65
2022/12/30 08:58:36;;;;;;;5.57;2.17;;;;;;;11.08;52.48;96031.22;4951821;29;20986;-66
2022/12/30 09:01:08;;;;;;;8.63;5.27;;;;;;;10.92;52.14;96034.53;4951597;29;20542;-63
2022/12/30 09:03:37;;;;;;;5.07;3.50;;;;;;;11.05;52.47;96042.16;4951569;29;20473;-64
2022/12/30 09:06:04;;;;;;;9.40;7.83;;;;;;;11.32;51.61;96039.81;4951391;29;20491;-62
2022/12/30 09:08:31;;;;;;;3.00;2.70;;;;;;;11.17;51.34;96040.31;4951572;29;20518;-66
2022/12/30 09:11:01;;;;;;;4.27;3.07;;;;;;;11.27;51.85;96037.13;4951643;29;20963;-66
2022/12/30 09:13:28;;;;;;;1.43;1.33;;;;;;;11.26;51.33;96026.84;4951555;29;20479;-65
2022/12/30 09:15:56;;;;;;;4.97;3.00;;;;;;;11.68;50.40;96028.22;4952510;29;21110;-65
2022/12/30 09:18:23;;;;;;;1.80;1.70;;;;;;;11.85;50.32;96029.06;4951322;29;20487;-67
2022/12/30 09:20:50;;;;;;;2.83;1.53;;;;;;;12.31;49.07;96020.94;4951286;29;20452;-65
2022/12/30 09:23:18;;;;;;;6.67;3.43;;;;;;;12.64;48.41;96017.50;4952034;29;20577;-67
2022/12/30 09:25:44;;;;;;;4.50;2.80;;;;;;;12.72;47.83;96017.88;4951705;29;20436;-62
2022/12/30 09:28:11;;;;;;;3.17;2.53;;;;;;;12.77;47.81;96023.22;4951251;29;20447;-63
2022/12/30 09:30:39;;;;;;;2.97;2.63;;;;;;;12.52;48.90;96014.94;4951590;29;20554;-64
2022/12/30 09:33:06;;;;;;;1.30;1.20;;;;;;;12.62;48.03;96019.56;4951030;29;20447;-63
2022/12/30 09:35:34;;;;;;;5.17;2.70;;;;;;;12.57;48.24;96012.41;4951173;29;20530;-66
2022/12/30 09:38:01;;;;;;;4.67;2.70;;;;;;;12.82;47.17;96010.16;4951214;29;20571;-63
2022/12/30 09:40:48;;;;;;;3.30;2.87;;;;;;;12.65;47.98;96006.75;4950754;28;20443;-63
2022/12/30 09:43:39;;;;;;;2.50;2.30;;;;;;;12.80;48.44;96000.91;4951116;29;20486;-65
2022/12/30 09:46:51;;;;;;;8.47;7.03;;;;;;;13.12;48.34;95994.78;4950159;29;20468;-65
2022/12/30 09:49:47;;;;;;;7.27;5.83;;;;;;;12.98;49.12;95983.00;4924899;28;20451;-64
2022/12/30 09:52:25;;;;;;;3.03;2.83;;;;;;;13.13;48.03;95980.63;4948211;29;20634;-60
2022/12/30 09:55:16;;;;;;;1.73;1.63;;;;;;;12.87;47.85;95981.28;4949613;29;20820;-61
2022/12/30 09:57:48;;;;;;;2.33;1.97;;;;;;;12.93;47.56;95980.31;4947917;29;20493;-63
2022/12/30 10:00:19;;;;;;;3.50;2.90;;;;;;;12.33;48.81;95974.19;4946933;29;20535;-61
2022/12/30 10:03:00;;;;;;;1.83;1.73;;;;;;;12.61;48.59;95976.69;4941882;29;20447;-61
2022/12/30 10:06:05;;;;;;;7.33;4.97;;;;;;;12.75;48.31;95971.91;4945479;29;21092;-60
2022/12/30 10:09:09;;;;;;;2.20;1.67;;;;;;;13.10;47.47;95969.78;4909297;29;20446;-61
2022/12/30 10:11:47;;;;;;;0.93;0.93;;;;;;;13.46;46.97;95957.81;4947979;29;20534;-60
2022/12/30 10:14:17;;;;;;;1.17;1.17;;;;;;;13.30;47.55;95956.06;4947995;29;21081;-60
2022/12/30 10:17:22;;;;;;;5.50;3.90;;;;;;;13.64;46.43;95958.28;4950105;29;20570;-59
2022/12/30 10:20:06;;;;;;;5.37;2.73;;;;;;;13.76;45.90;95948.38;4914904;29;20443;-60
2022/12/30 10:22:51;;;;;;;2.63;2.43;;;;;;;13.38;46.77;95945.06;4943135;29;20995;-61
2022/12/30 10:25:36;;;;;;;3.33;2.97;;;;;;;13.36;46.09;95947.19;4947829;29;20459;-61
2022/12/30 10:28:04;;;;;;;3.77;2.17;;;;;;;13.43;46.50;95947.78;4949121;29;20448;-60
2022/12/30 10:30:38;;;;;;;3.40;3.10;;;;;;;12.59;47.57;95947.22;4948124;29;20460;-62
2022/12/30 10:33:18;;;;;;;1.40;1.30;;;;;;;12.93;46.82;95938.22;4948091;29;21060;-61
2022/12/30 10:36:06;;;;;;;8.73;2.50;;;;;;;13.23;46.96;95926.50;4948626;29;20846;-62
2022/12/30 10:38:34;;;;;;;4.57;3.03;;;;;;;13.47;46.57;95925.16;4891224;29;20538;-61
2022/12/30 10:41:12;;;;;;;40.87;5.40;;;;;;;13.62;46.24;95918.22;4951666;29;20443;-61
2022/12/30 10:44:21;;;;;;;1.33;0.80;;;;;;;13.62;46.40;95915.59;4948119;29;20447;-62
2022/12/30 10:47:30;;;;;;;2.83;1.57;;;;;;;13.41;45.86;95913.78;4909431;29;20449;-62
2022/12/30 10:50:06;;;;;;;2.57;1.40;;;;;;;13.90;45.78;95912.66;4910779;29;20804;-61
2022/12/30 10:52:33;;;;;;;3.10;2.60;;;;;;;14.12;46.28;95904.69;4909167;29;20464;-62
2022/12/30 10:55:13;;;;;;;1.23;1.13;;;;;;;13.93;45.50;95900.84;4910123;29;20532;-60
2022/12/30 10:57:40;;;;;;;2.57;1.53;;;;;;;14.11;45.73;95887.28;4909640;29;20477;-61
2022/12/30 11:00:07;;;;;;;5.43;2.87;;;;;;;13.88;45.64;95880.53;4911201;29;20505;-60
2022/12/30 11:02:38;;;;;;;3.17;2.97;;;;;;;14.16;46.19;95884.66;4912352;29;20445;-69
2022/12/30 11:05:30;;;;;;;5.13;3.73;;;;;;;14.33;45.20;95885.34;4911471;29;20449;-62
2022/12/30 11:08:00;;;;;;;3.03;2.83;;;;;;;13.95;45.75;95864.50;4912480;29;20492;-61
2022/12/30 11:10:27;;;;;;;7.87;2.50;;;;;;;13.86;45.95;95873.91;4912220;29;20480;-64
2022/12/30 11:15:54;;;;;;;2.33;2.03;;;;;;;13.88;45.66;95871.81;4913413;29;20481;-61
2022/12/30 11:18:26;;;;;;;1.43;1.33;;;;;;;13.81;46.62;95865.97;4915458;29;20552;-61
2022/12/30 11:20:58;;;;;;;1.73;1.63;;;;;;;13.64;46.87;95876.63;4915455;29;20457;-61
2022/12/30 11:23:37;;;;;;;1.83;1.73;;;;;;;13.57;47.15;95869.97;4915572;29;20532;-62
2022/12/30 11:26:26;;;;;;;2.40;2.20;;;;;;;13.55;47.50;95870.22;4915776;29;20500;-59
2022/12/30 11:29:06;;;;;;;1.00;1.00;;;;;;;13.79;47.21;95862.78;4915140;29;20452;-62
2022/12/30 11:31:43;;;;;;;8.00;2.40;;;;;;;13.94;46.31;95871.59;4915298;29;20543;-61
2022/12/30 11:34:32;;;;;;;3.23;2.50;;;;;;;13.57;45.61;95868.16;4915271;29;20572;-62
2022/12/30 11:37:19;;;;;;;1.47;1.37;;;;;;;13.45;46.36;95858.81;4913573;29;20981;-62
2022/12/30 11:39:46;;;;;;;5.40;2.63;;;;;;;13.70;46.52;95864.31;4910699;29;20445;-60
2022/12/30 11:42:30;;;;;;;1.33;1.30;;;;;;;13.98;46.40;95856.06;4913075;29;20453;-61
2022/12/30 11:45:23;;;;;;;2.50;1.97;;;;;;;14.09;46.54;95868.28;4926673;29;21025;-61
2022/12/30 11:47:50;;;;;;;1.87;1.73;;;;;;;14.04;45.58;95871.69;4945822;29;20974;-61
2022/12/30 11:50:18;;;;;;;2.17;1.97;;;;;;;13.57;46.16;95852.34;4950165;29;20542;-61
2022/12/30 11:52:57;;;;;;;3.63;3.27;;;;;;;14.17;45.63;95854.63;4948737;29;20435;-62
2022/12/30 11:55:25;;;;;;;2.47;2.17;;;;;;;14.70;44.14;95854.44;4950227;29;20447;-60
2022/12/30 11:57:56;;;;;;;2.90;2.43;;;;;;;15.50;43.35;95853.09;4950948;29;20491;-62
2022/12/30 12:00:35;;;;;;;3.13;2.37;;;;;;;16.47;41.23;95848.31;4950974;29;20469;-63
2022/12/30 12:03:12;;;;;;;2.37;2.07;;;;;;;17.29;40.76;95844.25;4950608;29;20821;-62
2022/12/30 12:05:42;;;;;;;2.83;2.63;;;;;;;17.74;39.75;95836.81;4949060;29;20443;-62
2022/12/30 12:08:14;;;;;;;3.67;1.80;;;;;;;18.27;38.53;95835.03;4951756;29;20440;-67
2022/12/30 12:10:46;;;;;;;3.33;1.87;;;;;;;18.28;37.42;95836.63;4947220;29;21142;-66
2022/12/30 12:13:37;;;;;;;1.73;1.63;;;;;;;19.01;36.24;95829.97;4950978;29;20447;-62
2022/12/30 12:16:06;;;;;;;8.03;5.43;;;;;;;19.36;35.44;95831.38;4949322;29;20443;-64
2022/12/30 12:18:42;;;;;;;2.60;2.40;;;;;;;20.25;34.31;95832.94;4948673;29;20491;-63
2022/12/30 12:21:26;;;;;;;2.53;2.33;;;;;;;19.96;33.52;95835.00;4946562;29;20447;-65
2022/12/30 12:24:20;;;;;;;2.87;2.67;;;;;;;20.56;34.12;95828.63;4948086;29;20202;-65
2022/12/30 12:27:08;;;;;;;2.87;1.87;;;;;;;20.39;35.47;95828.41;4948433;28;20200;-66
2022/12/30 12:29:35;;;;;;;5.63;4.07;;;;;;;19.99;35.38;95829.09;4949248;29;20306;-65
2022/12/30 12:32:17;;;;;;;2.90;2.40;;;;;;;19.79;33.94;95818.78;4949378;29;20303;-66
2022/12/30 12:35:14;;;;;;;1.93;1.83;;;;;;;20.09;34.33;95818.25;4947694;29;20642;-69
2022/12/30 12:37:54;;;;;;;2.80;2.60;;;;;;;20.14;33.67;95815.53;4950003;29;20211;-67
2022/12/30 12:40:35;;;;;;;2.37;2.17;;;;;;;21.13;33.07;95817.38;4949688;29;20226;-63
2022/12/30 12:43:26;;;;;;;4.23;3.43;;;;;;;21.58;32.33;95807.59;4949660;29;20199;-69
2022/12/30 12:46:06;;;;;;;7.60;2.27;;;;;;;21.99;31.11;95816.22;4950848;29;20231;-67
2022/12/30 12:48:54;;;;;;;11.73;3.23;;;;;;;21.98;31.24;95812.00;4952383;29;20242;-64
2022/12/30 12:51:38;;;;;;;4.63;4.03;;;;;;;22.17;30.91;95808.31;4952293;29;20208;-64
2022/12/30 12:54:33;;;;;;;7.30;4.87;;;;;;;22.07;31.72;95814.69;4950947;29;20633;-62
2022/12/30 12:57:43;;;;;;;10.70;6.50;;;;;;;22.81;29.60;95811.13;4945965;29;20349;-65
2022/12/30 13:00:09;;;;;;;2.13;1.93;;;;;;;22.95;30.07;95813.69;4948141;29;20290;-65
2022/12/30 13:02:52;;;;;;;5.93;3.13;;;;;;;22.15;30.67;95821.97;4947104;29;20203;-64